sensor_id;sensor_type;location;lat;lon;timestamp;P1;durP1;ratioP1;P2;durP2;ratioP2
40152;SDS011;26371;56.992;23.912;2022-10-18T00:00:59;18.23;;;9.95;;
40152;SDS011;26371;56.992;23.912;2022-10-18T00:03:28;21.10;;;11.90;;
40152;SDS011;26371;56.992;23.912;2022-10-18T00:06:03;20.63;;;11.38;;
40152;SDS011;26371;56.992;23.912;2022-10-18T00:08:37;25.80;;;13.70;;
40152;SDS011;26371;56.992;23.912;2022-10-18T00:11:06;25.88;;;14.50;;
40152;SDS011;26371;56.992;23.912;2022-10-18T00:13:35;20.75;;;12.50;;
40152;SDS011;26371;56.992;23.912;2022-10-18T00:16:07;20.98;;;11.63;;
40152;SDS011;26371;56.992;23.912;2022-10-18T00:18:37;23.13;;;13.68;;
40152;SDS011;26371;56.992;23.912;2022-10-18T00:21:09;26.15;;;15.18;;
40152;SDS011;26371;56.992;23.912;2022-10-18T00:23:38;27.25;;;16.02;;
40152;SDS011;26371;56.992;23.912;2022-10-18T00:26:07;26.45;;;15.98;;
40152;SDS011;26371;56.992;23.912;2022-10-18T00:28:37;32.22;;;15.75;;
40152;SDS011;26371;56.992;23.912;2022-10-18T00:31:10;26.95;;;15.43;;
40152;SDS011;26371;56.992;23.912;2022-10-18T00:33:39;27.35;;;16.05;;
40152;SDS011;26371;56.992;23.912;2022-10-18T00:36:10;27.23;;;15.82;;
40152;SDS011;26371;56.992;23.912;2022-10-18T00:38:39;24.73;;;15.15;;
40152;SDS011;26371;56.992;23.912;2022-10-18T00:41:08;27.95;;;16.10;;
40152;SDS011;26371;56.992;23.912;2022-10-18T00:43:54;30.55;;;17.40;;
40152;SDS011;26371;56.992;23.912;2022-10-18T00:46:23;36.60;;;19.60;;
40152;SDS011;26371;56.992;23.912;2022-10-18T00:51:22;34.90;;;21.30;;
40152;SDS011;26371;56.992;23.912;2022-10-18T00:53:53;42.53;;;23.17;;
40152;SDS011;26371;56.992;23.912;2022-10-18T00:56:21;35.42;;;22.50;;
40152;SDS011;26371;56.992;23.912;2022-10-18T00:58:54;44.00;;;24.15;;
40152;SDS011;26371;56.992;23.912;2022-10-18T01:01:26;47.22;;;26.85;;
40152;SDS011;26371;56.992;23.912;2022-10-18T01:03:55;44.97;;;26.45;;
40152;SDS011;26371;56.992;23.912;2022-10-18T01:08:57;43.97;;;25.25;;
40152;SDS011;26371;56.992;23.912;2022-10-18T01:11:42;46.05;;;27.95;;
40152;SDS011;26371;56.992;23.912;2022-10-18T01:14:16;49.42;;;27.25;;
40152;SDS011;26371;56.992;23.912;2022-10-18T01:16:55;42.72;;;24.35;;
40152;SDS011;26371;56.992;23.912;2022-10-18T01:22:33;50.92;;;29.00;;
40152;SDS011;26371;56.992;23.912;2022-10-18T01:25:05;54.03;;;28.98;;
40152;SDS011;26371;56.992;23.912;2022-10-18T01:27:48;49.55;;;29.58;;
40152;SDS011;26371;56.992;23.912;2022-10-18T01:30:31;46.40;;;27.35;;
40152;SDS011;26371;56.992;23.912;2022-10-18T01:33:09;56.63;;;30.27;;
40152;SDS011;26371;56.992;23.912;2022-10-18T01:35:43;54.80;;;29.40;;
40152;SDS011;26371;56.992;23.912;2022-10-18T01:38:17;43.10;;;26.13;;
40152;SDS011;26371;56.992;23.912;2022-10-18T01:40:48;45.83;;;27.88;;
40152;SDS011;26371;56.992;23.912;2022-10-18T01:43:20;43.53;;;27.80;;
40152;SDS011;26371;56.992;23.912;2022-10-18T01:45:54;55.28;;;28.95;;
40152;SDS011;26371;56.992;23.912;2022-10-18T01:48:26;42.88;;;27.13;;
40152;SDS011;26371;56.992;23.912;2022-10-18T01:50:57;40.97;;;25.33;;
40152;SDS011;26371;56.992;23.912;2022-10-18T01:53:30;48.50;;;28.00;;
40152;SDS011;26371;56.992;23.912;2022-10-18T01:56:06;45.78;;;27.58;;
40152;SDS011;26371;56.992;23.912;2022-10-18T01:58:41;48.67;;;28.75;;
40152;SDS011;26371;56.992;23.912;2022-10-18T02:01:19;47.75;;;28.50;;
40152;SDS011;26371;56.992;23.912;2022-10-18T02:04:00;44.88;;;27.25;;
40152;SDS011;26371;56.992;23.912;2022-10-18T02:06:35;47.55;;;28.70;;
40152;SDS011;26371;56.992;23.912;2022-10-18T02:09:09;46.60;;;28.67;;
40152;SDS011;26371;56.992;23.912;2022-10-18T02:11:42;47.83;;;28.33;;
40152;SDS011;26371;56.992;23.912;2022-10-18T02:14:15;45.55;;;28.75;;
40152;SDS011;26371;56.992;23.912;2022-10-18T02:16:50;44.45;;;27.67;;
40152;SDS011;26371;56.992;23.912;2022-10-18T02:19:24;44.97;;;27.73;;
40152;SDS011;26371;56.992;23.912;2022-10-18T02:21:56;48.40;;;27.52;;
40152;SDS011;26371;56.992;23.912;2022-10-18T02:24:29;47.63;;;27.75;;
40152;SDS011;26371;56.992;23.912;2022-10-18T02:27:03;43.97;;;26.98;;
40152;SDS011;26371;56.992;23.912;2022-10-18T02:29:32;51.83;;;26.92;;
40152;SDS011;26371;56.992;23.912;2022-10-18T02:32:04;42.50;;;24.92;;
40152;SDS011;26371;56.992;23.912;2022-10-18T02:34:34;40.17;;;24.00;;
40152;SDS011;26371;56.992;23.912;2022-10-18T02:37:05;38.72;;;23.70;;
40152;SDS011;26371;56.992;23.912;2022-10-18T02:39:34;42.60;;;24.58;;
40152;SDS011;26371;56.992;23.912;2022-10-18T02:42:03;35.63;;;22.52;;
40152;SDS011;26371;56.992;23.912;2022-10-18T02:44:33;38.00;;;21.42;;
40152;SDS011;26371;56.992;23.912;2022-10-18T02:47:04;36.38;;;22.20;;
40152;SDS011;26371;56.992;23.912;2022-10-18T02:49:33;30.80;;;19.52;;
40152;SDS011;26371;56.992;23.912;2022-10-18T02:52:01;29.40;;;18.67;;
40152;SDS011;26371;56.992;23.912;2022-10-18T02:54:30;33.75;;;18.08;;
40152;SDS011;26371;56.992;23.912;2022-10-18T02:56:59;25.97;;;16.27;;
40152;SDS011;26371;56.992;23.912;2022-10-18T02:59:27;26.13;;;15.77;;
40152;SDS011;26371;56.992;23.912;2022-10-18T03:01:55;20.88;;;14.45;;
40152;SDS011;26371;56.992;23.912;2022-10-18T03:04:25;18.47;;;12.87;;
40152;SDS011;26371;56.992;23.912;2022-10-18T03:06:59;21.58;;;14.20;;
40152;SDS011;26371;56.992;23.912;2022-10-18T03:09:27;16.40;;;11.33;;
40152;SDS011;26371;56.992;23.912;2022-10-18T03:11:56;16.53;;;10.93;;
40152;SDS011;26371;56.992;23.912;2022-10-18T03:14:25;16.08;;;9.40;;
40152;SDS011;26371;56.992;23.912;2022-10-18T03:16:54;14.52;;;9.55;;
40152;SDS011;26371;56.992;23.912;2022-10-18T03:19:22;16.92;;;8.70;;
40152;SDS011;26371;56.992;23.912;2022-10-18T03:21:52;11.32;;;7.88;;
40152;SDS011;26371;56.992;23.912;2022-10-18T03:24:21;9.23;;;6.63;;
40152;SDS011;26371;56.992;23.912;2022-10-18T03:26:50;12.40;;;6.57;;
40152;SDS011;26371;56.992;23.912;2022-10-18T03:29:18;9.10;;;6.20;;
40152;SDS011;26371;56.992;23.912;2022-10-18T03:31:47;9.13;;;6.40;;
40152;SDS011;26371;56.992;23.912;2022-10-18T03:34:15;8.93;;;5.90;;
40152;SDS011;26371;56.992;23.912;2022-10-18T03:36:44;10.18;;;4.97;;
40152;SDS011;26371;56.992;23.912;2022-10-18T03:39:14;7.97;;;4.63;;
40152;SDS011;26371;56.992;23.912;2022-10-18T03:41:42;7.03;;;4.45;;
40152;SDS011;26371;56.992;23.912;2022-10-18T03:44:11;8.13;;;4.17;;
40152;SDS011;26371;56.992;23.912;2022-10-18T03:46:39;6.47;;;4.18;;
40152;SDS011;26371;56.992;23.912;2022-10-18T03:49:08;5.93;;;3.50;;
40152;SDS011;26371;56.992;23.912;2022-10-18T03:51:36;6.85;;;3.97;;
40152;SDS011;26371;56.992;23.912;2022-10-18T03:54:05;6.73;;;3.47;;
40152;SDS011;26371;56.992;23.912;2022-10-18T03:56:35;6.25;;;3.60;;
40152;SDS011;26371;56.992;23.912;2022-10-18T03:59:03;7.80;;;3.78;;
40152;SDS011;26371;56.992;23.912;2022-10-18T04:01:32;6.90;;;3.37;;
40152;SDS011;26371;56.992;23.912;2022-10-18T04:04:00;6.55;;;3.60;;
40152;SDS011;26371;56.992;23.912;2022-10-18T04:06:29;6.27;;;3.27;;
40152;SDS011;26371;56.992;23.912;2022-10-18T04:08:57;6.17;;;3.83;;
40152;SDS011;26371;56.992;23.912;2022-10-18T04:11:29;6.82;;;3.58;;
40152;SDS011;26371;56.992;23.912;2022-10-18T04:13:59;5.43;;;3.30;;
40152;SDS011;26371;56.992;23.912;2022-10-18T04:16:28;8.63;;;3.63;;
40152;SDS011;26371;56.992;23.912;2022-10-18T04:18:56;6.83;;;3.37;;
40152;SDS011;26371;56.992;23.912;2022-10-18T04:21:25;6.77;;;3.43;;
40152;SDS011;26371;56.992;23.912;2022-10-18T04:23:53;5.23;;;3.00;;
40152;SDS011;26371;56.992;23.912;2022-10-18T04:26:22;5.80;;;3.30;;
40152;SDS011;26371;56.992;23.912;2022-10-18T04:28:50;7.53;;;3.53;;
40152;SDS011;26371;56.992;23.912;2022-10-18T04:31:20;6.70;;;3.45;;
40152;SDS011;26371;56.992;23.912;2022-10-18T04:33:49;6.18;;;3.20;;
40152;SDS011;26371;56.992;23.912;2022-10-18T04:36:18;6.32;;;3.40;;
40152;SDS011;26371;56.992;23.912;2022-10-18T04:38:46;7.13;;;3.60;;
40152;SDS011;26371;56.992;23.912;2022-10-18T04:41:17;7.70;;;3.47;;
40152;SDS011;26371;56.992;23.912;2022-10-18T04:43:45;6.40;;;3.63;;
40152;SDS011;26371;56.992;23.912;2022-10-18T04:46:14;8.05;;;4.03;;
40152;SDS011;26371;56.992;23.912;2022-10-18T04:48:43;8.57;;;4.03;;
40152;SDS011;26371;56.992;23.912;2022-10-18T04:51:12;6.90;;;3.97;;
40152;SDS011;26371;56.992;23.912;2022-10-18T04:53:40;9.67;;;3.93;;
40152;SDS011;26371;56.992;23.912;2022-10-18T04:56:09;8.67;;;3.63;;
40152;SDS011;26371;56.992;23.912;2022-10-18T04:58:37;7.83;;;4.30;;
40152;SDS011;26371;56.992;23.912;2022-10-18T05:01:06;9.30;;;3.75;;
40152;SDS011;26371;56.992;23.912;2022-10-18T05:03:35;6.60;;;3.75;;
40152;SDS011;26371;56.992;23.912;2022-10-18T05:06:05;10.13;;;3.37;;
40152;SDS011;26371;56.992;23.912;2022-10-18T05:08:34;7.82;;;3.95;;
40152;SDS011;26371;56.992;23.912;2022-10-18T05:11:03;9.30;;;4.40;;
40152;SDS011;26371;56.992;23.912;2022-10-18T05:13:31;9.40;;;3.72;;
40152;SDS011;26371;56.992;23.912;2022-10-18T05:16:00;7.03;;;3.83;;
40152;SDS011;26371;56.992;23.912;2022-10-18T05:18:28;8.13;;;4.03;;
40152;SDS011;26371;56.992;23.912;2022-10-18T05:20:58;9.98;;;3.92;;
40152;SDS011;26371;56.992;23.912;2022-10-18T05:23:28;9.07;;;4.00;;
40152;SDS011;26371;56.992;23.912;2022-10-18T05:25:59;8.40;;;4.00;;
40152;SDS011;26371;56.992;23.912;2022-10-18T05:28:29;9.40;;;4.47;;
40152;SDS011;26371;56.992;23.912;2022-10-18T05:31:07;6.50;;;3.88;;
40152;SDS011;26371;56.992;23.912;2022-10-18T05:33:37;8.60;;;3.83;;
40152;SDS011;26371;56.992;23.912;2022-10-18T05:36:06;5.95;;;3.45;;
40152;SDS011;26371;56.992;23.912;2022-10-18T05:41:08;7.50;;;3.47;;
40152;SDS011;26371;56.992;23.912;2022-10-18T05:43:36;6.20;;;3.75;;
40152;SDS011;26371;56.992;23.912;2022-10-18T05:46:06;6.95;;;3.58;;
40152;SDS011;26371;56.992;23.912;2022-10-18T05:48:40;16.90;;;3.55;;
40152;SDS011;26371;56.992;23.912;2022-10-18T05:51:09;6.13;;;3.60;;
40152;SDS011;26371;56.992;23.912;2022-10-18T05:53:40;6.80;;;3.03;;
40152;SDS011;26371;56.992;23.912;2022-10-18T05:56:08;8.23;;;3.67;;
40152;SDS011;26371;56.992;23.912;2022-10-18T05:58:38;9.13;;;3.67;;
40152;SDS011;26371;56.992;23.912;2022-10-18T06:01:07;8.02;;;3.33;;
40152;SDS011;26371;56.992;23.912;2022-10-18T06:06:06;6.22;;;2.90;;
40152;SDS011;26371;56.992;23.912;2022-10-18T06:08:36;8.88;;;2.75;;
40152;SDS011;26371;56.992;23.912;2022-10-18T06:11:07;8.20;;;3.17;;
40152;SDS011;26371;56.992;23.912;2022-10-18T06:13:38;8.07;;;3.78;;
40152;SDS011;26371;56.992;23.912;2022-10-18T06:16:07;6.35;;;3.17;;
40152;SDS011;26371;56.992;23.912;2022-10-18T06:18:37;8.95;;;3.42;;
40152;SDS011;26371;56.992;23.912;2022-10-18T06:21:05;6.32;;;2.70;;
40152;SDS011;26371;56.992;23.912;2022-10-18T06:23:35;5.35;;;2.60;;
40152;SDS011;26371;56.992;23.912;2022-10-18T06:26:04;6.65;;;2.83;;
40152;SDS011;26371;56.992;23.912;2022-10-18T06:28:37;7.30;;;2.80;;
40152;SDS011;26371;56.992;23.912;2022-10-18T06:31:08;7.28;;;2.88;;
40152;SDS011;26371;56.992;23.912;2022-10-18T06:33:39;6.13;;;2.70;;
40152;SDS011;26371;56.992;23.912;2022-10-18T06:36:09;8.48;;;2.95;;
40152;SDS011;26371;56.992;23.912;2022-10-18T06:38:39;7.97;;;2.95;;
40152;SDS011;26371;56.992;23.912;2022-10-18T06:41:11;7.87;;;2.67;;
40152;SDS011;26371;56.992;23.912;2022-10-18T06:43:39;6.32;;;2.90;;
40152;SDS011;26371;56.992;23.912;2022-10-18T06:48:37;9.23;;;3.40;;
40152;SDS011;26371;56.992;23.912;2022-10-18T06:51:06;6.82;;;2.42;;
40152;SDS011;26371;56.992;23.912;2022-10-18T06:53:38;4.78;;;2.40;;
40152;SDS011;26371;56.992;23.912;2022-10-18T06:56:20;8.32;;;2.40;;
40152;SDS011;26371;56.992;23.912;2022-10-18T06:58:48;7.95;;;2.83;;
40152;SDS011;26371;56.992;23.912;2022-10-18T07:01:17;6.20;;;2.60;;
40152;SDS011;26371;56.992;23.912;2022-10-18T07:03:46;7.63;;;3.08;;
40152;SDS011;26371;56.992;23.912;2022-10-18T07:06:16;6.60;;;2.60;;
40152;SDS011;26371;56.992;23.912;2022-10-18T07:08:46;5.85;;;2.97;;
40152;SDS011;26371;56.992;23.912;2022-10-18T07:11:16;7.22;;;2.70;;
40152;SDS011;26371;56.992;23.912;2022-10-18T07:13:47;8.30;;;2.65;;
40152;SDS011;26371;56.992;23.912;2022-10-18T07:16:17;6.50;;;2.58;;
40152;SDS011;26371;56.992;23.912;2022-10-18T07:18:47;10.05;;;2.80;;
40152;SDS011;26371;56.992;23.912;2022-10-18T07:21:18;9.43;;;2.67;;
40152;SDS011;26371;56.992;23.912;2022-10-18T07:23:47;5.40;;;2.63;;
40152;SDS011;26371;56.992;23.912;2022-10-18T07:26:17;7.18;;;2.88;;
40152;SDS011;26371;56.992;23.912;2022-10-18T07:28:49;5.03;;;2.35;;
40152;SDS011;26371;56.992;23.912;2022-10-18T07:31:21;4.75;;;2.20;;
40152;SDS011;26371;56.992;23.912;2022-10-18T07:33:50;6.90;;;2.10;;
40152;SDS011;26371;56.992;23.912;2022-10-18T07:36:19;5.50;;;1.80;;
40152;SDS011;26371;56.992;23.912;2022-10-18T07:38:47;7.80;;;2.15;;
40152;SDS011;26371;56.992;23.912;2022-10-18T07:41:17;6.50;;;1.75;;
40152;SDS011;26371;56.992;23.912;2022-10-18T07:43:48;7.47;;;2.35;;
40152;SDS011;26371;56.992;23.912;2022-10-18T07:46:18;4.80;;;1.98;;
40152;SDS011;26371;56.992;23.912;2022-10-18T07:48:48;6.85;;;2.10;;
40152;SDS011;26371;56.992;23.912;2022-10-18T07:51:18;7.55;;;2.42;;
40152;SDS011;26371;56.992;23.912;2022-10-18T07:56:16;8.68;;;1.88;;
40152;SDS011;26371;56.992;23.912;2022-10-18T07:58:48;5.20;;;2.17;;
40152;SDS011;26371;56.992;23.912;2022-10-18T08:01:18;9.75;;;3.00;;
40152;SDS011;26371;56.992;23.912;2022-10-18T08:03:48;6.22;;;2.78;;
40152;SDS011;26371;56.992;23.912;2022-10-18T08:06:18;4.70;;;2.40;;
40152;SDS011;26371;56.992;23.912;2022-10-18T08:08:48;4.60;;;1.70;;
40152;SDS011;26371;56.992;23.912;2022-10-18T08:11:17;6.53;;;1.50;;
40152;SDS011;26371;56.992;23.912;2022-10-18T08:13:48;8.27;;;1.75;;
40152;SDS011;26371;56.992;23.912;2022-10-18T08:16:17;6.10;;;1.80;;
40152;SDS011;26371;56.992;23.912;2022-10-18T08:18:47;6.07;;;1.75;;
40152;SDS011;26371;56.992;23.912;2022-10-18T08:23:46;5.18;;;1.40;;
40152;SDS011;26371;56.992;23.912;2022-10-18T08:26:16;7.60;;;2.45;;
40152;SDS011;26371;56.992;23.912;2022-10-18T08:28:46;7.65;;;1.50;;
40152;SDS011;26371;56.992;23.912;2022-10-18T08:31:30;4.95;;;1.33;;
40152;SDS011;26371;56.992;23.912;2022-10-18T08:33:59;4.57;;;1.40;;
40152;SDS011;26371;56.992;23.912;2022-10-18T08:36:27;7.90;;;2.07;;
40152;SDS011;26371;56.992;23.912;2022-10-18T08:38:56;5.45;;;1.45;;
40152;SDS011;26371;56.992;23.912;2022-10-18T08:44:17;7.22;;;1.45;;
40152;SDS011;26371;56.992;23.912;2022-10-18T08:46:49;5.65;;;1.40;;
40152;SDS011;26371;56.992;23.912;2022-10-18T08:49:23;6.68;;;1.65;;
40152;SDS011;26371;56.992;23.912;2022-10-18T08:51:54;5.47;;;1.30;;
40152;SDS011;26371;56.992;23.912;2022-10-18T08:54:29;4.88;;;1.65;;
40152;SDS011;26371;56.992;23.912;2022-10-18T08:57:00;5.70;;;1.73;;
40152;SDS011;26371;56.992;23.912;2022-10-18T08:59:35;4.55;;;1.15;;
40152;SDS011;26371;56.992;23.912;2022-10-18T09:02:15;6.10;;;1.40;;
40152;SDS011;26371;56.992;23.912;2022-10-18T09:05:00;9.18;;;1.85;;
40152;SDS011;26371;56.992;23.912;2022-10-18T09:07:39;5.50;;;1.33;;
40152;SDS011;26371;56.992;23.912;2022-10-18T09:10:25;7.03;;;1.50;;
40152;SDS011;26371;56.992;23.912;2022-10-18T09:13:09;9.50;;;1.30;;
40152;SDS011;26371;56.992;23.912;2022-10-18T09:15:53;5.38;;;1.25;;
40152;SDS011;26371;56.992;23.912;2022-10-18T09:21:22;6.00;;;1.27;;
40152;SDS011;26371;56.992;23.912;2022-10-18T09:23:59;6.70;;;1.50;;
40152;SDS011;26371;56.992;23.912;2022-10-18T09:26:37;5.47;;;1.40;;
40152;SDS011;26371;56.992;23.912;2022-10-18T09:29:15;7.43;;;1.60;;
40152;SDS011;26371;56.992;23.912;2022-10-18T09:31:58;8.85;;;1.52;;
40152;SDS011;26371;56.992;23.912;2022-10-18T09:34:37;8.10;;;1.73;;
40152;SDS011;26371;56.992;23.912;2022-10-18T09:37:09;7.57;;;1.38;;
40152;SDS011;26371;56.992;23.912;2022-10-18T09:39:40;7.40;;;1.90;;
40152;SDS011;26371;56.992;23.912;2022-10-18T09:42:10;6.18;;;1.63;;
40152;SDS011;26371;56.992;23.912;2022-10-18T09:44:43;9.30;;;1.30;;
40152;SDS011;26371;56.992;23.912;2022-10-18T09:47:15;6.07;;;1.40;;
40152;SDS011;26371;56.992;23.912;2022-10-18T09:49:50;6.45;;;1.67;;
40152;SDS011;26371;56.992;23.912;2022-10-18T09:52:24;3.95;;;1.15;;
40152;SDS011;26371;56.992;23.912;2022-10-18T09:54:59;5.80;;;1.60;;
40152;SDS011;26371;56.992;23.912;2022-10-18T09:57:33;7.90;;;2.22;;
40152;SDS011;26371;56.992;23.912;2022-10-18T10:00:08;7.03;;;1.67;;
40152;SDS011;26371;56.992;23.912;2022-10-18T10:02:43;7.70;;;1.73;;
40152;SDS011;26371;56.992;23.912;2022-10-18T10:05:13;6.20;;;1.30;;
40152;SDS011;26371;56.992;23.912;2022-10-18T10:07:43;8.80;;;1.50;;
40152;SDS011;26371;56.992;23.912;2022-10-18T10:10:16;5.45;;;1.30;;
40152;SDS011;26371;56.992;23.912;2022-10-18T10:12:49;8.55;;;1.30;;
40152;SDS011;26371;56.992;23.912;2022-10-18T10:15:30;5.90;;;1.40;;
40152;SDS011;26371;56.992;23.912;2022-10-18T10:18:18;6.47;;;1.60;;
40152;SDS011;26371;56.992;23.912;2022-10-18T10:20:51;6.60;;;1.30;;
40152;SDS011;26371;56.992;23.912;2022-10-18T10:23:22;10.05;;;1.70;;
40152;SDS011;26371;56.992;23.912;2022-10-18T10:25:54;5.20;;;1.42;;
40152;SDS011;26371;56.992;23.912;2022-10-18T10:28:26;9.90;;;2.13;;
40152;SDS011;26371;56.992;23.912;2022-10-18T10:31:15;6.22;;;1.73;;
40152;SDS011;26371;56.992;23.912;2022-10-18T10:33:45;5.63;;;1.70;;
40152;SDS011;26371;56.992;23.912;2022-10-18T10:36:16;7.57;;;1.20;;
40152;SDS011;26371;56.992;23.912;2022-10-18T10:38:53;4.90;;;1.33;;
40152;SDS011;26371;56.992;23.912;2022-10-18T10:41:30;8.52;;;1.60;;
40152;SDS011;26371;56.992;23.912;2022-10-18T10:46:32;8.35;;;1.48;;
40152;SDS011;26371;56.992;23.912;2022-10-18T10:49:02;5.90;;;1.20;;
40152;SDS011;26371;56.992;23.912;2022-10-18T10:51:54;10.68;;;1.50;;
40152;SDS011;26371;56.992;23.912;2022-10-18T10:54:42;6.18;;;1.25;;
40152;SDS011;26371;56.992;23.912;2022-10-18T10:57:18;6.97;;;1.23;;
40152;SDS011;26371;56.992;23.912;2022-10-18T10:59:50;10.07;;;1.90;;
40152;SDS011;26371;56.992;23.912;2022-10-18T11:02:21;7.53;;;2.00;;
40152;SDS011;26371;56.992;23.912;2022-10-18T11:04:53;6.70;;;1.50;;
40152;SDS011;26371;56.992;23.912;2022-10-18T11:07:25;7.55;;;1.25;;
40152;SDS011;26371;56.992;23.912;2022-10-18T11:10:03;7.75;;;1.52;;
40152;SDS011;26371;56.992;23.912;2022-10-18T11:12:38;5.60;;;0.95;;
40152;SDS011;26371;56.992;23.912;2022-10-18T11:15:13;5.80;;;1.85;;
40152;SDS011;26371;56.992;23.912;2022-10-18T11:17:47;6.57;;;1.35;;
40152;SDS011;26371;56.992;23.912;2022-10-18T11:20:27;7.80;;;1.33;;
40152;SDS011;26371;56.992;23.912;2022-10-18T11:23:02;7.95;;;1.45;;
40152;SDS011;26371;56.992;23.912;2022-10-18T11:28:32;8.35;;;1.40;;
40152;SDS011;26371;56.992;23.912;2022-10-18T11:31:14;10.35;;;2.25;;
40152;SDS011;26371;56.992;23.912;2022-10-18T11:33:56;10.18;;;1.92;;
40152;SDS011;26371;56.992;23.912;2022-10-18T11:36:37;6.55;;;1.20;;
40152;SDS011;26371;56.992;23.912;2022-10-18T11:39:35;6.22;;;1.48;;
40152;SDS011;26371;56.992;23.912;2022-10-18T11:42:15;6.80;;;1.55;;
40152;SDS011;26371;56.992;23.912;2022-10-18T11:44:51;9.43;;;1.30;;
40152;SDS011;26371;56.992;23.912;2022-10-18T11:47:28;8.70;;;2.33;;
40152;SDS011;26371;56.992;23.912;2022-10-18T11:50:08;5.32;;;1.10;;
40152;SDS011;26371;56.992;23.912;2022-10-18T11:52:49;8.15;;;1.10;;
40152;SDS011;26371;56.992;23.912;2022-10-18T11:58:06;5.68;;;1.17;;
40152;SDS011;26371;56.992;23.912;2022-10-18T12:00:50;5.47;;;1.48;;
40152;SDS011;26371;56.992;23.912;2022-10-18T12:03:26;6.35;;;1.20;;
40152;SDS011;26371;56.992;23.912;2022-10-18T12:06:04;8.40;;;1.15;;
40152;SDS011;26371;56.992;23.912;2022-10-18T12:08:37;4.03;;;0.98;;
40152;SDS011;26371;56.992;23.912;2022-10-18T12:11:13;5.15;;;1.13;;
40152;SDS011;26371;56.992;23.912;2022-10-18T12:13:45;8.00;;;1.60;;
40152;SDS011;26371;56.992;23.912;2022-10-18T12:16:19;4.03;;;1.13;;
40152;SDS011;26371;56.992;23.912;2022-10-18T12:19:11;4.05;;;1.20;;
40152;SDS011;26371;56.992;23.912;2022-10-18T12:21:52;7.72;;;1.65;;
40152;SDS011;26371;56.992;23.912;2022-10-18T12:24:24;5.68;;;1.02;;
40152;SDS011;26371;56.992;23.912;2022-10-18T12:26:58;5.95;;;1.13;;
40152;SDS011;26371;56.992;23.912;2022-10-18T12:29:28;6.68;;;1.10;;
40152;SDS011;26371;56.992;23.912;2022-10-18T12:32:05;5.18;;;1.10;;
40152;SDS011;26371;56.992;23.912;2022-10-18T12:34:40;6.72;;;1.13;;
40152;SDS011;26371;56.992;23.912;2022-10-18T12:37:15;4.68;;;0.88;;
40152;SDS011;26371;56.992;23.912;2022-10-18T12:39:58;5.13;;;1.42;;
40152;SDS011;26371;56.992;23.912;2022-10-18T12:42:43;7.78;;;1.10;;
40152;SDS011;26371;56.992;23.912;2022-10-18T12:45:22;5.70;;;1.02;;
40152;SDS011;26371;56.992;23.912;2022-10-18T12:47:54;7.03;;;0.80;;
40152;SDS011;26371;56.992;23.912;2022-10-18T12:50:27;2.83;;;0.68;;
40152;SDS011;26371;56.992;23.912;2022-10-18T12:53:05;4.70;;;1.23;;
40152;SDS011;26371;56.992;23.912;2022-10-18T12:55:44;4.22;;;0.80;;
40152;SDS011;26371;56.992;23.912;2022-10-18T12:58:28;4.78;;;1.08;;
40152;SDS011;26371;56.992;23.912;2022-10-18T13:01:02;6.05;;;0.70;;
40152;SDS011;26371;56.992;23.912;2022-10-18T13:03:38;2.70;;;0.60;;
40152;SDS011;26371;56.992;23.912;2022-10-18T13:09:29;6.13;;;1.45;;
40152;SDS011;26371;56.992;23.912;2022-10-18T13:12:32;6.38;;;0.90;;
40152;SDS011;26371;56.992;23.912;2022-10-18T13:15:28;4.65;;;0.80;;
40152;SDS011;26371;56.992;23.912;2022-10-18T13:18:05;3.08;;;0.55;;
40152;SDS011;26371;56.992;23.912;2022-10-18T13:23:25;3.70;;;0.70;;
40152;SDS011;26371;56.992;23.912;2022-10-18T13:26:08;4.47;;;0.60;;
40152;SDS011;26371;56.992;23.912;2022-10-18T13:28:47;5.22;;;0.73;;
40152;SDS011;26371;56.992;23.912;2022-10-18T13:31:24;4.15;;;0.70;;
40152;SDS011;26371;56.992;23.912;2022-10-18T13:36:57;4.38;;;0.65;;
40152;SDS011;26371;56.992;23.912;2022-10-18T13:39:28;16.30;;;9.43;;
40152;SDS011;26371;56.992;23.912;2022-10-18T13:44:46;3.75;;;0.90;;
40152;SDS011;26371;56.992;23.912;2022-10-18T13:47:16;5.77;;;0.73;;
40152;SDS011;26371;56.992;23.912;2022-10-18T13:50:06;5.28;;;0.60;;
40152;SDS011;26371;56.992;23.912;2022-10-18T13:55:49;2.78;;;0.52;;
40152;SDS011;26371;56.992;23.912;2022-10-18T13:58:30;5.13;;;0.70;;
40152;SDS011;26371;56.992;23.912;2022-10-18T14:01:27;4.82;;;0.63;;
40152;SDS011;26371;56.992;23.912;2022-10-18T14:04:22;3.78;;;0.73;;
40152;SDS011;26371;56.992;23.912;2022-10-18T14:07:14;7.35;;;1.38;;
40152;SDS011;26371;56.992;23.912;2022-10-18T14:09:46;4.53;;;0.60;;
40152;SDS011;26371;56.992;23.912;2022-10-18T14:12:24;6.45;;;0.77;;
40152;SDS011;26371;56.992;23.912;2022-10-18T14:14:58;5.00;;;1.05;;
40152;SDS011;26371;56.992;23.912;2022-10-18T14:17:34;5.35;;;1.05;;
40152;SDS011;26371;56.992;23.912;2022-10-18T14:20:21;4.38;;;0.80;;
40152;SDS011;26371;56.992;23.912;2022-10-18T14:22:56;4.15;;;0.60;;
40152;SDS011;26371;56.992;23.912;2022-10-18T14:25:30;3.90;;;0.85;;
40152;SDS011;26371;56.992;23.912;2022-10-18T14:28:05;3.85;;;0.70;;
40152;SDS011;26371;56.992;23.912;2022-10-18T14:30:49;4.25;;;0.52;;
40152;SDS011;26371;56.992;23.912;2022-10-18T14:33:25;5.07;;;0.50;;
40152;SDS011;26371;56.992;23.912;2022-10-18T14:36:00;5.65;;;0.70;;
40152;SDS011;26371;56.992;23.912;2022-10-18T14:38:37;4.45;;;0.60;;
40152;SDS011;26371;56.992;23.912;2022-10-18T14:41:14;5.32;;;0.80;;
40152;SDS011;26371;56.992;23.912;2022-10-18T14:43:44;2.58;;;0.50;;
40152;SDS011;26371;56.992;23.912;2022-10-18T14:46:16;3.60;;;0.60;;
40152;SDS011;26371;56.992;23.912;2022-10-18T14:48:54;3.15;;;0.60;;
40152;SDS011;26371;56.992;23.912;2022-10-18T14:51:27;4.10;;;0.40;;
40152;SDS011;26371;56.992;23.912;2022-10-18T14:53:58;5.50;;;0.90;;
40152;SDS011;26371;56.992;23.912;2022-10-18T14:56:29;35.03;;;14.77;;
40152;SDS011;26371;56.992;23.912;2022-10-18T14:59:02;6.95;;;2.15;;
40152;SDS011;26371;56.992;23.912;2022-10-18T15:01:33;12.02;;;5.25;;
40152;SDS011;26371;56.992;23.912;2022-10-18T15:04:05;5.82;;;1.52;;
40152;SDS011;26371;56.992;23.912;2022-10-18T15:06:41;5.68;;;1.30;;
40152;SDS011;26371;56.992;23.912;2022-10-18T15:09:12;4.88;;;1.00;;
40152;SDS011;26371;56.992;23.912;2022-10-18T15:11:43;3.08;;;0.65;;
40152;SDS011;26371;56.992;23.912;2022-10-18T15:14:14;5.70;;;1.10;;
40152;SDS011;26371;56.992;23.912;2022-10-18T15:16:46;3.55;;;0.60;;
40152;SDS011;26371;56.992;23.912;2022-10-18T15:19:28;6.03;;;0.88;;
40152;SDS011;26371;56.992;23.912;2022-10-18T15:22:01;7.00;;;0.93;;
40152;SDS011;26371;56.992;23.912;2022-10-18T15:27:41;4.95;;;1.60;;
40152;SDS011;26371;56.992;23.912;2022-10-18T15:30:17;5.78;;;0.80;;
40152;SDS011;26371;56.992;23.912;2022-10-18T15:32:48;3.95;;;0.80;;
40152;SDS011;26371;56.992;23.912;2022-10-18T15:35:21;4.65;;;0.75;;
40152;SDS011;26371;56.992;23.912;2022-10-18T15:37:53;6.15;;;0.95;;
40152;SDS011;26371;56.992;23.912;2022-10-18T15:40:31;5.40;;;0.70;;
40152;SDS011;26371;56.992;23.912;2022-10-18T15:43:03;5.15;;;0.82;;
40152;SDS011;26371;56.992;23.912;2022-10-18T15:45:36;8.25;;;1.00;;
40152;SDS011;26371;56.992;23.912;2022-10-18T15:48:21;3.97;;;0.70;;
40152;SDS011;26371;56.992;23.912;2022-10-18T15:50:53;5.13;;;0.82;;
40152;SDS011;26371;56.992;23.912;2022-10-18T15:53:31;6.82;;;0.80;;
40152;SDS011;26371;56.992;23.912;2022-10-18T15:56:04;3.55;;;0.82;;